Buoy 62726

sailwx.info

Track history (hours):
 
Tides and Currents Weather Stations Pressure Air Temp Water Temp Dewpoint Dewpoint Depression Visibility Wind Speed Wind Dir Waves Ship Positions

Drifting buoy 62726

Last reported at 2014-Aug-22 15:00 UTC. Time now 2014-Aug-22 17:45 UTC.
Position N 39°42' W 015°19'.

Water temperature 22.4 ° C

Date/timePositionNaut miles runAvg speedWind from/ knotsBaromVisibWave heightAir tempDewpointWater temp
2014-Aug-22 15:00N 39°42' W 015°19'1 0.9 22.4
2014-Aug-22 14:00N 39°43' W 015°19'0 0.0 22.6
2014-Aug-22 13:00N 39°43' W 015°19'4 4.0 22.5
2014-Aug-22 12:00N 39°40' W 015°22'0 0.1 22.1
2014-Aug-22 09:00N 39°40' W 015°21'0 0.0 21.9
2014-Aug-22 08:00N 39°40' W 015°21'1 0.4 21.9
2014-Aug-22 06:00N 39°39' W 015°21'1 1.0 21.9
2014-Aug-22 05:00N 39°40' W 015°20'0 0.0 21.9
2014-Aug-22 03:00N 39°40' W 015°20'1 0.4 21.9
2014-Aug-22 00:00N 39°40' W 015°22'0 0.0 22.0
2014-Aug-21 23:00N 39°40' W 015°22'0 0.2 22.1
2014-Aug-21 22:00N 39°39' W 015°22'1 1.1 22.1
2014-Aug-21 21:00N 39°39' W 015°23'1 0.6 22.1
2014-Aug-21 19:00N 39°37' W 015°22'0 0.0 22.2
2014-Aug-21 18:00N 39°37' W 015°22'1 0.3 22.2
2014-Aug-21 16:00N 39°38' W 015°22'0 0.1 22.2
2014-Aug-21 15:00N 39°38' W 015°22'0 0.5 22.2
2014-Aug-21 14:00N 39°38' W 015°23'0 0.0 22.2
2014-Aug-21 13:00N 39°38' W 015°23'0 0.0 22.3
2014-Aug-21 12:00N 39°38' W 015°23'2 1.7 22.2
2014-Aug-21 11:00N 39°37' W 015°24'1 0.5 22.1
2014-Aug-21 09:00N 39°36' W 015°25'1 0.3 22.1
2014-Aug-21 07:00N 39°35' W 015°24'0 0.0 22.1
2014-Aug-21 06:00N 39°35' W 015°24'0 0.4 22.1
2014-Aug-21 05:00N 39°36' W 015°24'0 0.4 22.1
2014-Aug-21 04:00N 39°35' W 015°24'0 0.0 22.1
2014-Aug-21 03:00N 39°35' W 015°24'1 1.4 22.2
2014-Aug-21 02:00N 39°35' W 015°25'0 0.0 22.2
2014-Aug-21 01:00N 39°35' W 015°25'0 0.0 22.2
2014-Aug-20 22:00N 39°35' W 015°25'0 0.5 22.4
2014-Aug-20 21:00N 39°34' W 015°25'0 0.0 22.4
2014-Aug-20 20:00N 39°34' W 015°25'0 0.1 22.4
2014-Aug-20 18:00N 39°34' W 015°25'0 0.4 22.5
2014-Aug-20 17:00N 39°34' W 015°26'1 0.3 22.4
2014-Aug-20 15:00N 39°33' W 015°25'0 0.1 22.6
2014-Aug-20 13:00N 39°34' W 015°25'1 0.7 22.4
2014-Aug-20 12:00N 39°33' W 015°26'0 0.4 22.1
2014-Aug-20 11:00N 39°33' W 015°25'1 0.6 22.0
2014-Aug-20 10:00N 39°32' W 015°26'0 0.0 21.9
2014-Aug-20 07:00N 39°32' W 015°26'0 0.0 21.8
2014-Aug-20 04:00N 39°32' W 015°26'1 0.5 21.8
2014-Aug-20 03:00N 39°33' W 015°27'0 0.1 21.8
2014-Aug-19 23:00N 39°32' W 015°26'1 0.6 21.8
2014-Aug-19 22:00N 39°32' W 015°27'0 0.3 21.8
2014-Aug-19 21:00N 39°31' W 015°27'0 0.0 21.8
2014-Aug-19 19:00N 39°31' W 015°27'0 0.4 21.9
2014-Aug-19 18:00N 39°31' W 015°27'0 0.0 21.9
2014-Aug-19 17:00N 39°31' W 015°27'1 0.3 21.9
2014-Aug-19 14:00N 39°30' W 015°27'0 0.1 21.9
2014-Aug-19 13:00N 39°30' W 015°27'0 0.1 21.9
2014-Aug-19 11:00N 39°30' W 015°27'0 0.0 21.8
2014-Aug-19 10:00N 39°30' W 015°27'1 0.2 21.7
2014-Aug-19 07:00N 39°30' W 015°27'0 0.4 21.7
2014-Aug-19 06:00N 39°30' W 015°28'1 0.6 21.7
2014-Aug-19 05:00N 39°30' W 015°29'1 0.5 21.7
2014-Aug-19 04:00N 39°29' W 015°29'0 0.0 21.7
2014-Aug-19 03:00N 39°29' W 015°29'2 0.4 21.7
2014-Aug-18 23:00N 39°28' W 015°27'0 0.0 21.7
2014-Aug-18 21:00N 39°28' W 015°27'0 0.4 21.8
2014-Aug-18 20:00N 39°29' W 015°27'0 0.2 21.8
2014-Aug-18 18:00N 39°29' W 015°27'1 0.7 21.9
2014-Aug-18 17:00N 39°29' W 015°28'0 0.1 21.9
2014-Aug-18 15:00N 39°29' W 015°28'1 0.4 21.9
2014-Aug-18 12:00N 39°27' W 015°28'0 0.0 21.7
2014-Aug-18 10:00N 39°27' W 015°28'1 0.2 21.7
2014-Aug-18 06:00N 39°26' W 015°28'0 0.1 21.7
2014-Aug-18 05:00N 39°26' W 015°28'0 0.0 21.7
2014-Aug-18 03:00N 39°26' W 015°28'1 0.3 21.7
2014-Aug-18 01:00N 39°26' W 015°28'1 0.6 21.7
2014-Aug-17 23:00N 39°27' W 015°27'1 0.5 21.7
2014-Aug-17 22:00N 39°27' W 015°27'0 0.2 21.7
2014-Aug-17 20:00N 39°27' W 015°27'0 0.4 21.8
2014-Aug-17 19:00N 39°27' W 015°28'0 0.2 21.8
2014-Aug-17 18:00N 39°27' W 015°28'1 1.4 21.8
2014-Aug-17 17:00N 39°26' W 015°29'0 0.0 21.8
2014-Aug-17 16:00N 39°26' W 015°29'1 0.5 21.8
2014-Aug-17 15:00N 39°25' W 015°28'1 0.5 21.8
2014-Aug-17 13:00N 39°24' W 015°29'2 2.4 21.8
2014-Aug-17 12:00N 39°25' W 015°26'1 0.2 21.7
2014-Aug-17 09:00N 39°24' W 015°27'0 0.0 21.7
2014-Aug-17 08:00N 39°24' W 015°27'0 0.0 21.7
2014-Aug-17 05:00N 39°24' W 015°27'0 0.2 21.7
2014-Aug-17 04:00N 39°24' W 015°27'2 0.5 21.7
2014-Aug-17 01:00N 39°23' W 015°27'0 0.0 21.8
2014-Aug-16 23:00N 39°23' W 015°27'0 0.1 21.8
2014-Aug-16 22:00N 39°23' W 015°27'1 0.4 21.8
2014-Aug-16 19:00N 39°22' W 015°26'0 0.0 21.9
2014-Aug-16 18:00N 39°22' W 015°26'1 0.5 21.9
2014-Aug-16 16:00N 39°21' W 015°26'0 0.2 21.9
2014-Aug-16 15:00N 39°21' W 015°25'1 0.2 21.9
2014-Aug-16 12:00N 39°21' W 015°25'0 0.0 21.9
2014-Aug-16 11:00N 39°21' W 015°25'0 0.3 21.8
2014-Aug-16 10:00N 39°21' W 015°25'0 0.2 21.8
2014-Aug-16 09:00N 39°21' W 015°25'0 0.0 21.8
2014-Aug-16 08:00N 39°21' W 015°25'0 0.5 21.8
2014-Aug-16 07:00N 39°21' W 015°26'1 0.7 21.8
2014-Aug-16 06:00N 39°20' W 015°26'0 0.0 21.8
2014-Aug-16 05:00N 39°20' W 015°26'0 0.5 21.9
2014-Aug-16 04:00N 39°20' W 015°26'2 0.4 21.9
2014-Aug-15 22:00N 39°18' W 015°25'1 0.6 22.0
2014-Aug-15 21:00N 39°17' W 015°24'0 0.0 22.0
2014-Aug-15 18:00N 39°17' W 015°24'0 0.0 22.0
2014-Aug-15 16:00N 39°17' W 015°24'1 0.1 22.1
2014-Aug-15 07:00N 39°17' W 015°22'0 0.2 22.0
2014-Aug-15 06:00N 39°17' W 015°22'0 0.1 22.0
2014-Aug-14 23:00N 39°17' W 015°23'0 0.5 22.0
2014-Aug-14 22:00N 39°17' W 015°23'0 0.0 22.1
2014-Aug-14 21:00N 39°17' W 015°23'0 0.3 22.1
2014-Aug-14 20:00N 39°17' W 015°23'1 0.5 22.2
2014-Aug-14 18:00N 39°16' W 015°23'0 0.0 22.3
2014-Aug-14 17:00N 39°16' W 015°23'0 0.0 22.3
2014-Aug-14 16:00N 39°16' W 015°23'0 0.0 22.4
2014-Aug-14 15:00N 39°16' W 015°23'1 0.6 22.3
2014-Aug-14 14:00N 39°16' W 015°22'0 0.0 22.3
2014-Aug-14 12:00N 39°16' W 015°22'0 0.3 22.1
2014-Aug-14 11:00N 39°16' W 015°22'1 1.2 22.0
2014-Aug-14 10:00N 39°17' W 015°22'0 0.0 21.9
2014-Aug-14 08:00N 39°17' W 015°22'0 0.1 21.9
2014-Aug-14 07:00N 39°17' W 015°23'0 0.2 21.9
2014-Aug-14 06:00N 39°17' W 015°23'1 0.7 21.9
2014-Aug-14 05:00N 39°17' W 015°23'0 0.0 21.9
2014-Aug-14 04:00N 39°17' W 015°23'0 0.0 21.9
2014-Aug-14 03:00N 39°17' W 015°23'1 0.3 21.9
2014-Aug-13 23:00N 39°16' W 015°23'1 0.6 22.0
2014-Aug-13 21:00N 39°15' W 015°21'0 0.0 22.0
2014-Aug-13 20:00N 39°15' W 015°21'0 0.0 22.1
2014-Aug-13 19:00N 39°15' W 015°21'0 0.4 22.1
2014-Aug-13 18:00N 39°15' W 015°21'0 0.0 22.2
2014-Aug-13 17:00N 39°15' W 015°21'0 0.5 22.2
2014-Aug-13 16:00N 39°16' W 015°21'0 0.0 22.2
2014-Aug-13 15:00N 39°16' W 015°21'0 0.0 22.2
2014-Aug-13 14:00N 39°16' W 015°21'1 0.3 22.1
2014-Aug-13 12:00N 39°16' W 015°21'0 0.0 22.0
2014-Aug-13 10:00N 39°16' W 015°21'1 0.8 22.0
2014-Aug-13 09:00N 39°16' W 015°22'1 0.4 22.0
2014-Aug-13 06:00N 39°15' W 015°22'1 0.6 22.0
2014-Aug-13 04:00N 39°14' W 015°21'2 0.5 22.0
2014-Aug-13 00:00N 39°15' W 015°19'1 0.4 22.1
2014-Aug-12 21:00N 39°16' W 015°19'0 0.0 22.2
2014-Aug-12 20:00N 39°16' W 015°19'0 0.2 22.2
2014-Aug-12 18:00N 39°16' W 015°18'1 0.4 22.2
2014-Aug-12 16:00N 39°15' W 015°19'0 0.4 22.2
2014-Aug-12 15:00N 39°15' W 015°19'   22.2
Track history (hours):
 
Tides and Currents Weather Stations Pressure Air Temp Water Temp Dewpoint Dewpoint Depression Visibility Wind Speed Wind Dir Waves Ship Positions

Drifting buoy 62726

Last reported at 2014-Aug-22 15:00 UTC. Time now 2014-Aug-22 17:45 UTC.
Position N 39°42' W 015°19'.

Water temperature 22.4 ° C

Date/timePositionNaut miles runAvg speedWind from/ knotsBaromVisibWave heightAir tempDewpointWater temp
2014-Aug-22 15:00N 39°42' W 015°19'1 0.9 22.4
2014-Aug-22 14:00N 39°43' W 015°19'0 0.0 22.6
2014-Aug-22 13:00N 39°43' W 015°19'4 4.0 22.5
2014-Aug-22 12:00N 39°40' W 015°22'0 0.1 22.1
2014-Aug-22 09:00N 39°40' W 015°21'0 0.0 21.9
2014-Aug-22 08:00N 39°40' W 015°21'1 0.4 21.9
2014-Aug-22 06:00N 39°39' W 015°21'1 1.0 21.9
2014-Aug-22 05:00N 39°40' W 015°20'0 0.0 21.9
2014-Aug-22 03:00N 39°40' W 015°20'1 0.4 21.9
2014-Aug-22 00:00N 39°40' W 015°22'0 0.0 22.0
2014-Aug-21 23:00N 39°40' W 015°22'0 0.2 22.1
2014-Aug-21 22:00N 39°39' W 015°22'1 1.1 22.1
2014-Aug-21 21:00N 39°39' W 015°23'1 0.6 22.1
2014-Aug-21 19:00N 39°37' W 015°22'0 0.0 22.2
2014-Aug-21 18:00N 39°37' W 015°22'1 0.3 22.2
2014-Aug-21 16:00N 39°38' W 015°22'0 0.1 22.2
2014-Aug-21 15:00N 39°38' W 015°22'0 0.5 22.2
2014-Aug-21 14:00N 39°38' W 015°23'0 0.0 22.2
2014-Aug-21 13:00N 39°38' W 015°23'0 0.0 22.3
2014-Aug-21 12:00N 39°38' W 015°23'2 1.7 22.2
2014-Aug-21 11:00N 39°37' W 015°24'1 0.5 22.1
2014-Aug-21 09:00N 39°36' W 015°25'1 0.3 22.1
2014-Aug-21 07:00N 39°35' W 015°24'0 0.0 22.1
2014-Aug-21 06:00N 39°35' W 015°24'0 0.4 22.1
2014-Aug-21 05:00N 39°36' W 015°24'0 0.4 22.1
2014-Aug-21 04:00N 39°35' W 015°24'0 0.0 22.1
2014-Aug-21 03:00N 39°35' W 015°24'1 1.4 22.2
2014-Aug-21 02:00N 39°35' W 015°25'0 0.0 22.2
2014-Aug-21 01:00N 39°35' W 015°25'0 0.0 22.2
2014-Aug-20 22:00N 39°35' W 015°25'0 0.5 22.4
2014-Aug-20 21:00N 39°34' W 015°25'0 0.0 22.4
2014-Aug-20 20:00N 39°34' W 015°25'0 0.1 22.4
2014-Aug-20 18:00N 39°34' W 015°25'0 0.4 22.5
2014-Aug-20 17:00N 39°34' W 015°26'1 0.3 22.4
2014-Aug-20 15:00N 39°33' W 015°25'0 0.1 22.6
2014-Aug-20 13:00N 39°34' W 015°25'1 0.7 22.4
2014-Aug-20 12:00N 39°33' W 015°26'0 0.4 22.1
2014-Aug-20 11:00N 39°33' W 015°25'1 0.6 22.0
2014-Aug-20 10:00N 39°32' W 015°26'0 0.0 21.9
2014-Aug-20 07:00N 39°32' W 015°26'0 0.0 21.8
2014-Aug-20 04:00N 39°32' W 015°26'1 0.5 21.8
2014-Aug-20 03:00N 39°33' W 015°27'0 0.1 21.8
2014-Aug-19 23:00N 39°32' W 015°26'1 0.6 21.8
2014-Aug-19 22:00N 39°32' W 015°27'0 0.3 21.8
2014-Aug-19 21:00N 39°31' W 015°27'0 0.0 21.8
2014-Aug-19 19:00N 39°31' W 015°27'0 0.4 21.9
2014-Aug-19 18:00N 39°31' W 015°27'0 0.0 21.9
2014-Aug-19 17:00N 39°31' W 015°27'1 0.3 21.9
2014-Aug-19 14:00N 39°30' W 015°27'0 0.1 21.9
2014-Aug-19 13:00N 39°30' W 015°27'0 0.1 21.9
2014-Aug-19 11:00N 39°30' W 015°27'0 0.0 21.8
2014-Aug-19 10:00N 39°30' W 015°27'1 0.2 21.7
2014-Aug-19 07:00N 39°30' W 015°27'0 0.4 21.7
2014-Aug-19 06:00N 39°30' W 015°28'1 0.6 21.7
2014-Aug-19 05:00N 39°30' W 015°29'1 0.5 21.7
2014-Aug-19 04:00N 39°29' W 015°29'0 0.0 21.7
2014-Aug-19 03:00N 39°29' W 015°29'2 0.4 21.7
2014-Aug-18 23:00N 39°28' W 015°27'0 0.0 21.7
2014-Aug-18 21:00N 39°28' W 015°27'0 0.4 21.8
2014-Aug-18 20:00N 39°29' W 015°27'0 0.2 21.8
2014-Aug-18 18:00N 39°29' W 015°27'1 0.7 21.9
2014-Aug-18 17:00N 39°29' W 015°28'0 0.1 21.9
2014-Aug-18 15:00N 39°29' W 015°28'1 0.4 21.9
2014-Aug-18 12:00N 39°27' W 015°28'0 0.0 21.7
2014-Aug-18 10:00N 39°27' W 015°28'1 0.2 21.7
2014-Aug-18 06:00N 39°26' W 015°28'0 0.1 21.7
2014-Aug-18 05:00N 39°26' W 015°28'0 0.0 21.7
2014-Aug-18 03:00N 39°26' W 015°28'1 0.3 21.7
2014-Aug-18 01:00N 39°26' W 015°28'1 0.6 21.7
2014-Aug-17 23:00N 39°27' W 015°27'1 0.5 21.7
2014-Aug-17 22:00N 39°27' W 015°27'0 0.2 21.7
2014-Aug-17 20:00N 39°27' W 015°27'0 0.4 21.8
2014-Aug-17 19:00N 39°27' W 015°28'0 0.2 21.8
2014-Aug-17 18:00N 39°27' W 015°28'1 1.4 21.8
2014-Aug-17 17:00N 39°26' W 015°29'0 0.0 21.8
2014-Aug-17 16:00N 39°26' W 015°29'1 0.5 21.8
2014-Aug-17 15:00N 39°25' W 015°28'1 0.5 21.8
2014-Aug-17 13:00N 39°24' W 015°29'2 2.4 21.8
2014-Aug-17 12:00N 39°25' W 015°26'1 0.2 21.7
2014-Aug-17 09:00N 39°24' W 015°27'0 0.0 21.7
2014-Aug-17 08:00N 39°24' W 015°27'0 0.0 21.7
2014-Aug-17 05:00N 39°24' W 015°27'0 0.2 21.7
2014-Aug-17 04:00N 39°24' W 015°27'2 0.5 21.7
2014-Aug-17 01:00N 39°23' W 015°27'0 0.0 21.8
2014-Aug-16 23:00N 39°23' W 015°27'0 0.1 21.8
2014-Aug-16 22:00N 39°23' W 015°27'1 0.4 21.8
2014-Aug-16 19:00N 39°22' W 015°26'0 0.0 21.9
2014-Aug-16 18:00N 39°22' W 015°26'1 0.5 21.9
2014-Aug-16 16:00N 39°21' W 015°26'0 0.2 21.9
2014-Aug-16 15:00N 39°21' W 015°25'1 0.2 21.9
2014-Aug-16 12:00N 39°21' W 015°25'0 0.0 21.9
2014-Aug-16 11:00N 39°21' W 015°25'0 0.3 21.8
2014-Aug-16 10:00N 39°21' W 015°25'0 0.2 21.8
2014-Aug-16 09:00N 39°21' W 015°25'0 0.0 21.8
2014-Aug-16 08:00N 39°21' W 015°25'0 0.5 21.8
2014-Aug-16 07:00N 39°21' W 015°26'1 0.7 21.8
2014-Aug-16 06:00N 39°20' W 015°26'0 0.0 21.8
2014-Aug-16 05:00N 39°20' W 015°26'0 0.5 21.9
2014-Aug-16 04:00N 39°20' W 015°26'2 0.4 21.9
2014-Aug-15 22:00N 39°18' W 015°25'1 0.6 22.0
2014-Aug-15 21:00N 39°17' W 015°24'0 0.0 22.0
2014-Aug-15 18:00N 39°17' W 015°24'0 0.0 22.0
2014-Aug-15 16:00N 39°17' W 015°24'1 0.1 22.1
2014-Aug-15 07:00N 39°17' W 015°22'0 0.2 22.0
2014-Aug-15 06:00N 39°17' W 015°22'0 0.1 22.0
2014-Aug-14 23:00N 39°17' W 015°23'0 0.5 22.0
2014-Aug-14 22:00N 39°17' W 015°23'0 0.0 22.1
2014-Aug-14 21:00N 39°17' W 015°23'0 0.3 22.1
2014-Aug-14 20:00N 39°17' W 015°23'1 0.5 22.2
2014-Aug-14 18:00N 39°16' W 015°23'0 0.0 22.3
2014-Aug-14 17:00N 39°16' W 015°23'0 0.0 22.3
2014-Aug-14 16:00N 39°16' W 015°23'0 0.0 22.4
2014-Aug-14 15:00N 39°16' W 015°23'1 0.6 22.3
2014-Aug-14 14:00N 39°16' W 015°22'0 0.0 22.3
2014-Aug-14 12:00N 39°16' W 015°22'0 0.3 22.1
2014-Aug-14 11:00N 39°16' W 015°22'1 1.2 22.0
2014-Aug-14 10:00N 39°17' W 015°22'0 0.0 21.9
2014-Aug-14 08:00N 39°17' W 015°22'0 0.1 21.9
2014-Aug-14 07:00N 39°17' W 015°23'0 0.2 21.9
2014-Aug-14 06:00N 39°17' W 015°23'1 0.7 21.9
2014-Aug-14 05:00N 39°17' W 015°23'0 0.0 21.9
2014-Aug-14 04:00N 39°17' W 015°23'0 0.0 21.9
2014-Aug-14 03:00N 39°17' W 015°23'1 0.3 21.9
2014-Aug-13 23:00N 39°16' W 015°23'1 0.6 22.0
2014-Aug-13 21:00N 39°15' W 015°21'0 0.0 22.0
2014-Aug-13 20:00N 39°15' W 015°21'0 0.0 22.1
2014-Aug-13 19:00N 39°15' W 015°21'0 0.4 22.1
2014-Aug-13 18:00N 39°15' W 015°21'0 0.0 22.2
2014-Aug-13 17:00N 39°15' W 015°21'0 0.5 22.2
2014-Aug-13 16:00N 39°16' W 015°21'0 0.0 22.2
2014-Aug-13 15:00N 39°16' W 015°21'0 0.0 22.2
2014-Aug-13 14:00N 39°16' W 015°21'1 0.3 22.1
2014-Aug-13 12:00N 39°16' W 015°21'0 0.0 22.0
2014-Aug-13 10:00N 39°16' W 015°21'1 0.8 22.0
2014-Aug-13 09:00N 39°16' W 015°22'1 0.4 22.0
2014-Aug-13 06:00N 39°15' W 015°22'1 0.6 22.0
2014-Aug-13 04:00N 39°14' W 015°21'2 0.5 22.0
2014-Aug-13 00:00N 39°15' W 015°19'1 0.4 22.1
2014-Aug-12 21:00N 39°16' W 015°19'0 0.0 22.2
2014-Aug-12 20:00N 39°16' W 015°19'0 0.2 22.2
2014-Aug-12 18:00N 39°16' W 015°18'1 0.4 22.2
2014-Aug-12 16:00N 39°15' W 015°19'0 0.4 22.2
2014-Aug-12 15:00N 39°15' W 015°19'   22.2

Dump ship's entire track history